sensor_id;sensor_type;location;lat;lon;timestamp;temperature;humidity
29731;DHT22;16639;51.488;0.152;2022-12-24T00:01:57;9.30;99.90
29731;DHT22;16639;51.488;0.152;2022-12-24T00:04:25;9.30;99.90
29731;DHT22;16639;51.488;0.152;2022-12-24T00:06:52;9.30;99.90
29731;DHT22;16639;51.488;0.152;2022-12-24T00:09:19;9.30;99.90
29731;DHT22;16639;51.488;0.152;2022-12-24T00:11:46;9.40;99.90
29731;DHT22;16639;51.488;0.152;2022-12-24T00:14:14;9.40;99.90
29731;DHT22;16639;51.488;0.152;2022-12-24T00:16:41;9.30;99.90
29731;DHT22;16639;51.488;0.152;2022-12-24T00:19:08;9.30;99.90
29731;DHT22;16639;51.488;0.152;2022-12-24T00:21:35;9.30;99.90
29731;DHT22;16639;51.488;0.152;2022-12-24T00:24:02;9.40;99.90
29731;DHT22;16639;51.488;0.152;2022-12-24T00:26:32;9.30;99.90
29731;DHT22;16639;51.488;0.152;2022-12-24T00:28:59;9.30;99.90
29731;DHT22;16639;51.488;0.152;2022-12-24T00:31:26;9.40;99.90
29731;DHT22;16639;51.488;0.152;2022-12-24T00:33:53;9.30;99.90
29731;DHT22;16639;51.488;0.152;2022-12-24T00:36:20;9.40;99.90
29731;DHT22;16639;51.488;0.152;2022-12-24T00:38:48;9.40;99.90
29731;DHT22;16639;51.488;0.152;2022-12-24T00:41:15;9.50;99.90
29731;DHT22;16639;51.488;0.152;2022-12-24T00:43:58;9.40;99.90
29731;DHT22;16639;51.488;0.152;2022-12-24T00:46:26;9.40;99.90
29731;DHT22;16639;51.488;0.152;2022-12-24T00:48:54;9.40;99.90
29731;DHT22;16639;51.488;0.152;2022-12-24T00:51:22;9.40;99.90
29731;DHT22;16639;51.488;0.152;2022-12-24T00:53:49;9.40;99.90
29731;DHT22;16639;51.488;0.152;2022-12-24T00:56:17;9.40;99.90
29731;DHT22;16639;51.488;0.152;2022-12-24T00:58:44;9.40;99.90
29731;DHT22;16639;51.488;0.152;2022-12-24T01:01:11;9.40;99.90
29731;DHT22;16639;51.488;0.152;2022-12-24T01:03:41;9.40;99.90
29731;DHT22;16639;51.488;0.152;2022-12-24T01:06:16;9.40;99.90
29731;DHT22;16639;51.488;0.152;2022-12-24T01:08:44;9.40;99.90
29731;DHT22;16639;51.488;0.152;2022-12-24T01:11:11;9.40;99.90
29731;DHT22;16639;51.488;0.152;2022-12-24T01:13:39;9.40;99.90
29731;DHT22;16639;51.488;0.152;2022-12-24T01:16:13;9.40;99.90
29731;DHT22;16639;51.488;0.152;2022-12-24T01:18:41;9.30;99.90
29731;DHT22;16639;51.488;0.152;2022-12-24T01:21:08;9.40;99.90
29731;DHT22;16639;51.488;0.152;2022-12-24T01:23:36;9.50;99.90
29731;DHT22;16639;51.488;0.152;2022-12-24T01:26:03;9.40;99.90
29731;DHT22;16639;51.488;0.152;2022-12-24T01:28:32;9.50;99.90
29731;DHT22;16639;51.488;0.152;2022-12-24T01:30:59;9.40;99.90
29731;DHT22;16639;51.488;0.152;2022-12-24T01:33:27;9.40;99.90
29731;DHT22;16639;51.488;0.152;2022-12-24T01:35:54;9.40;99.90
29731;DHT22;16639;51.488;0.152;2022-12-24T01:38:21;9.50;99.90
29731;DHT22;16639;51.488;0.152;2022-12-24T01:40:49;9.40;99.90
29731;DHT22;16639;51.488;0.152;2022-12-24T01:43:35;9.40;99.90
29731;DHT22;16639;51.488;0.152;2022-12-24T01:46:02;9.40;99.90
29731;DHT22;16639;51.488;0.152;2022-12-24T01:48:33;9.30;99.90
29731;DHT22;16639;51.488;0.152;2022-12-24T01:51:04;9.30;99.90
29731;DHT22;16639;51.488;0.152;2022-12-24T01:53:32;9.40;99.90
29731;DHT22;16639;51.488;0.152;2022-12-24T01:56:00;9.30;99.90
29731;DHT22;16639;51.488;0.152;2022-12-24T01:58:28;9.80;99.90
29731;DHT22;16639;51.488;0.152;2022-12-24T02:00:55;10.40;99.90
29731;DHT22;16639;51.488;0.152;2022-12-24T02:03:23;9.40;99.90
29731;DHT22;16639;51.488;0.152;2022-12-24T02:05:51;9.40;99.90
29731;DHT22;16639;51.488;0.152;2022-12-24T02:08:19;9.40;99.90
29731;DHT22;16639;51.488;0.152;2022-12-24T02:10:46;9.30;99.90
29731;DHT22;16639;51.488;0.152;2022-12-24T02:13:15;9.30;99.90
29731;DHT22;16639;51.488;0.152;2022-12-24T02:18:13;9.30;99.90
29731;DHT22;16639;51.488;0.152;2022-12-24T02:30:41;9.30;99.90
29731;DHT22;16639;51.488;0.152;2022-12-24T02:35:51;9.20;99.90
29731;DHT22;16639;51.488;0.152;2022-12-24T02:38:27;9.30;99.90
29731;DHT22;16639;51.488;0.152;2022-12-24T02:41:01;9.30;99.90
29731;DHT22;16639;51.488;0.152;2022-12-24T02:43:33;9.30;99.90
29731;DHT22;16639;51.488;0.152;2022-12-24T02:46:03;9.30;99.90
29731;DHT22;16639;51.488;0.152;2022-12-24T02:48:32;9.20;99.90
29731;DHT22;16639;51.488;0.152;2022-12-24T02:51:02;9.20;99.90
29731;DHT22;16639;51.488;0.152;2022-12-24T02:53:30;9.30;99.90
29731;DHT22;16639;51.488;0.152;2022-12-24T02:56:22;9.20;99.90
29731;DHT22;16639;51.488;0.152;2022-12-24T03:06:29;9.20;99.90
29731;DHT22;16639;51.488;0.152;2022-12-24T03:09:12;9.30;99.90
29731;DHT22;16639;51.488;0.152;2022-12-24T03:11:42;9.20;99.90
29731;DHT22;16639;51.488;0.152;2022-12-24T03:14:11;9.30;99.90
29731;DHT22;16639;51.488;0.152;2022-12-24T03:16:38;9.30;99.90
29731;DHT22;16639;51.488;0.152;2022-12-24T03:19:06;9.30;99.90
29731;DHT22;16639;51.488;0.152;2022-12-24T03:21:33;9.20;99.90
29731;DHT22;16639;51.488;0.152;2022-12-24T03:24:01;9.30;99.90
29731;DHT22;16639;51.488;0.152;2022-12-24T03:26:28;9.20;99.90
29731;DHT22;16639;51.488;0.152;2022-12-24T03:28:57;9.20;99.90
29731;DHT22;16639;51.488;0.152;2022-12-24T03:31:25;9.30;99.90
29731;DHT22;16639;51.488;0.152;2022-12-24T03:33:52;9.20;99.90
29731;DHT22;16639;51.488;0.152;2022-12-24T03:36:19;9.30;99.90
29731;DHT22;16639;51.488;0.152;2022-12-24T03:38:46;9.20;99.90
29731;DHT22;16639;51.488;0.152;2022-12-24T03:41:13;9.20;99.90
29731;DHT22;16639;51.488;0.152;2022-12-24T03:43:40;9.20;99.90
29731;DHT22;16639;51.488;0.152;2022-12-24T03:46:08;9.20;99.90
29731;DHT22;16639;51.488;0.152;2022-12-24T03:48:35;9.50;99.90
29731;DHT22;16639;51.488;0.152;2022-12-24T03:51:02;9.20;99.90
29731;DHT22;16639;51.488;0.152;2022-12-24T03:53:30;9.30;99.90
29731;DHT22;16639;51.488;0.152;2022-12-24T03:55:58;9.30;99.90
29731;DHT22;16639;51.488;0.152;2022-12-24T03:58:25;9.30;99.90
29731;DHT22;16639;51.488;0.152;2022-12-24T04:00:52;9.30;99.90
29731;DHT22;16639;51.488;0.152;2022-12-24T04:03:19;9.20;99.90
29731;DHT22;16639;51.488;0.152;2022-12-24T04:05:47;9.30;99.90
29731;DHT22;16639;51.488;0.152;2022-12-24T04:08:14;9.20;99.90
29731;DHT22;16639;51.488;0.152;2022-12-24T04:10:41;9.20;99.90
29731;DHT22;16639;51.488;0.152;2022-12-24T04:13:08;9.20;99.90
29731;DHT22;16639;51.488;0.152;2022-12-24T04:15:35;9.20;99.90
29731;DHT22;16639;51.488;0.152;2022-12-24T04:18:03;9.20;99.90
29731;DHT22;16639;51.488;0.152;2022-12-24T04:20:30;9.20;99.90
29731;DHT22;16639;51.488;0.152;2022-12-24T04:22:57;9.20;99.90
29731;DHT22;16639;51.488;0.152;2022-12-24T04:25:24;9.20;99.90
29731;DHT22;16639;51.488;0.152;2022-12-24T04:27:52;9.10;99.90
29731;DHT22;16639;51.488;0.152;2022-12-24T04:30:19;9.20;99.90
29731;DHT22;16639;51.488;0.152;2022-12-24T04:32:46;9.00;99.90
29731;DHT22;16639;51.488;0.152;2022-12-24T04:35:13;9.10;99.90
29731;DHT22;16639;51.488;0.152;2022-12-24T04:37:40;9.10;99.90
29731;DHT22;16639;51.488;0.152;2022-12-24T04:40:07;9.20;99.90
29731;DHT22;16639;51.488;0.152;2022-12-24T04:42:35;9.20;99.90
29731;DHT22;16639;51.488;0.152;2022-12-24T04:45:02;9.20;99.90
29731;DHT22;16639;51.488;0.152;2022-12-24T04:47:30;9.20;99.90
29731;DHT22;16639;51.488;0.152;2022-12-24T04:49:57;9.10;99.90
29731;DHT22;16639;51.488;0.152;2022-12-24T04:52:25;9.10;99.90
29731;DHT22;16639;51.488;0.152;2022-12-24T04:54:52;9.10;99.90
29731;DHT22;16639;51.488;0.152;2022-12-24T04:57:19;9.10;99.90
29731;DHT22;16639;51.488;0.152;2022-12-24T04:59:47;9.10;99.90
29731;DHT22;16639;51.488;0.152;2022-12-24T05:02:14;9.50;99.90
29731;DHT22;16639;51.488;0.152;2022-12-24T05:04:42;9.20;99.90
29731;DHT22;16639;51.488;0.152;2022-12-24T05:07:10;9.80;99.90
29731;DHT22;16639;51.488;0.152;2022-12-24T05:09:37;9.20;99.90
29731;DHT22;16639;51.488;0.152;2022-12-24T05:12:04;9.20;99.90
29731;DHT22;16639;51.488;0.152;2022-12-24T05:14:31;9.20;99.90
29731;DHT22;16639;51.488;0.152;2022-12-24T05:16:58;9.10;99.90
29731;DHT22;16639;51.488;0.152;2022-12-24T05:19:27;9.10;99.90
29731;DHT22;16639;51.488;0.152;2022-12-24T05:21:54;9.10;99.90
29731;DHT22;16639;51.488;0.152;2022-12-24T05:24:40;9.10;99.90
29731;DHT22;16639;51.488;0.152;2022-12-24T05:27:25;9.10;99.90
29731;DHT22;16639;51.488;0.152;2022-12-24T05:29:53;9.10;99.90
29731;DHT22;16639;51.488;0.152;2022-12-24T05:32:20;9.10;99.90
29731;DHT22;16639;51.488;0.152;2022-12-24T05:34:47;8.50;99.90
29731;DHT22;16639;51.488;0.152;2022-12-24T05:37:14;9.00;99.90
29731;DHT22;16639;51.488;0.152;2022-12-24T05:39:41;9.00;99.90
29731;DHT22;16639;51.488;0.152;2022-12-24T05:42:09;9.00;99.90
29731;DHT22;16639;51.488;0.152;2022-12-24T05:44:36;9.00;99.90
29731;DHT22;16639;51.488;0.152;2022-12-24T05:47:03;9.00;99.90
29731;DHT22;16639;51.488;0.152;2022-12-24T05:49:30;9.00;99.90
29731;DHT22;16639;51.488;0.152;2022-12-24T05:51:58;9.10;99.90
29731;DHT22;16639;51.488;0.152;2022-12-24T05:54:25;9.40;99.90
29731;DHT22;16639;51.488;0.152;2022-12-24T05:56:52;9.10;99.90
29731;DHT22;16639;51.488;0.152;2022-12-24T05:59:20;9.10;99.90
29731;DHT22;16639;51.488;0.152;2022-12-24T06:01:47;9.10;99.90
29731;DHT22;16639;51.488;0.152;2022-12-24T06:04:14;9.00;99.90
29731;DHT22;16639;51.488;0.152;2022-12-24T06:06:41;9.00;99.90
29731;DHT22;16639;51.488;0.152;2022-12-24T06:09:09;9.00;99.90
29731;DHT22;16639;51.488;0.152;2022-12-24T06:11:36;9.00;99.90
29731;DHT22;16639;51.488;0.152;2022-12-24T06:14:03;9.00;99.90
29731;DHT22;16639;51.488;0.152;2022-12-24T06:16:31;9.00;99.90
29731;DHT22;16639;51.488;0.152;2022-12-24T06:18:58;9.00;99.90
29731;DHT22;16639;51.488;0.152;2022-12-24T06:21:25;8.90;99.90
29731;DHT22;16639;51.488;0.152;2022-12-24T06:23:53;8.90;99.90
29731;DHT22;16639;51.488;0.152;2022-12-24T06:26:21;8.90;99.90
29731;DHT22;16639;51.488;0.152;2022-12-24T06:28:49;8.90;99.90
29731;DHT22;16639;51.488;0.152;2022-12-24T06:31:17;8.90;99.90
29731;DHT22;16639;51.488;0.152;2022-12-24T06:33:45;8.90;99.90
29731;DHT22;16639;51.488;0.152;2022-12-24T06:36:19;8.90;99.90
29731;DHT22;16639;51.488;0.152;2022-12-24T06:38:47;8.90;99.90
29731;DHT22;16639;51.488;0.152;2022-12-24T06:41:15;8.90;99.90
29731;DHT22;16639;51.488;0.152;2022-12-24T06:43:43;8.80;99.90
29731;DHT22;16639;51.488;0.152;2022-12-24T06:46:13;8.80;99.90
29731;DHT22;16639;51.488;0.152;2022-12-24T06:48:42;8.80;99.90
29731;DHT22;16639;51.488;0.152;2022-12-24T06:51:10;8.80;99.90
29731;DHT22;16639;51.488;0.152;2022-12-24T06:53:38;8.80;99.90
29731;DHT22;16639;51.488;0.152;2022-12-24T06:56:06;8.00;99.90
29731;DHT22;16639;51.488;0.152;2022-12-24T06:58:34;8.70;99.90
29731;DHT22;16639;51.488;0.152;2022-12-24T07:01:02;8.80;99.90
29731;DHT22;16639;51.488;0.152;2022-12-24T07:03:29;8.80;99.90
29731;DHT22;16639;51.488;0.152;2022-12-24T07:05:57;8.80;99.90
29731;DHT22;16639;51.488;0.152;2022-12-24T07:08:24;8.80;99.90
29731;DHT22;16639;51.488;0.152;2022-12-24T07:10:52;8.70;99.90
29731;DHT22;16639;51.488;0.152;2022-12-24T07:13:20;8.70;99.90
29731;DHT22;16639;51.488;0.152;2022-12-24T07:15:55;8.70;99.90
29731;DHT22;16639;51.488;0.152;2022-12-24T07:18:22;8.70;99.90
29731;DHT22;16639;51.488;0.152;2022-12-24T07:20:49;8.70;99.90
29731;DHT22;16639;51.488;0.152;2022-12-24T07:23:16;8.70;99.90
29731;DHT22;16639;51.488;0.152;2022-12-24T07:25:44;8.60;99.90
29731;DHT22;16639;51.488;0.152;2022-12-24T07:28:11;8.60;99.90
29731;DHT22;16639;51.488;0.152;2022-12-24T07:30:38;8.60;99.90
29731;DHT22;16639;51.488;0.152;2022-12-24T07:33:05;8.50;99.90
29731;DHT22;16639;51.488;0.152;2022-12-24T07:35:33;8.10;99.90
29731;DHT22;16639;51.488;0.152;2022-12-24T07:38:00;8.50;99.90
29731;DHT22;16639;51.488;0.152;2022-12-24T07:40:28;8.50;99.90
29731;DHT22;16639;51.488;0.152;2022-12-24T07:42:55;8.40;99.90
29731;DHT22;16639;51.488;0.152;2022-12-24T07:45:23;8.40;99.90
29731;DHT22;16639;51.488;0.152;2022-12-24T07:47:51;8.10;99.90
29731;DHT22;16639;51.488;0.152;2022-12-24T07:50:18;9.10;99.90
29731;DHT22;16639;51.488;0.152;2022-12-24T07:52:45;8.40;99.90
29731;DHT22;16639;51.488;0.152;2022-12-24T07:55:12;8.30;99.90
29731;DHT22;16639;51.488;0.152;2022-12-24T07:57:39;8.40;99.90
29731;DHT22;16639;51.488;0.152;2022-12-24T08:00:07;8.40;99.90
29731;DHT22;16639;51.488;0.152;2022-12-24T08:02:34;8.40;99.90
29731;DHT22;16639;51.488;0.152;2022-12-24T08:05:03;8.40;99.90
29731;DHT22;16639;51.488;0.152;2022-12-24T08:07:30;8.30;99.90
29731;DHT22;16639;51.488;0.152;2022-12-24T08:09:57;8.30;99.90
29731;DHT22;16639;51.488;0.152;2022-12-24T08:12:24;8.70;99.90
29731;DHT22;16639;51.488;0.152;2022-12-24T08:14:51;8.20;99.90
29731;DHT22;16639;51.488;0.152;2022-12-24T08:17:19;8.20;99.90
29731;DHT22;16639;51.488;0.152;2022-12-24T08:19:46;8.10;99.90
29731;DHT22;16639;51.488;0.152;2022-12-24T08:22:14;8.10;99.90
29731;DHT22;16639;51.488;0.152;2022-12-24T08:24:41;8.10;99.90
29731;DHT22;16639;51.488;0.152;2022-12-24T08:27:08;8.00;99.90
29731;DHT22;16639;51.488;0.152;2022-12-24T08:29:35;8.10;99.90
29731;DHT22;16639;51.488;0.152;2022-12-24T08:32:03;8.00;99.90
29731;DHT22;16639;51.488;0.152;2022-12-24T08:34:30;8.00;99.90
29731;DHT22;16639;51.488;0.152;2022-12-24T08:36:57;7.90;99.90
29731;DHT22;16639;51.488;0.152;2022-12-24T08:39:24;7.90;99.90
29731;DHT22;16639;51.488;0.152;2022-12-24T08:41:52;7.90;99.90
29731;DHT22;16639;51.488;0.152;2022-12-24T08:44:19;7.90;99.90
29731;DHT22;16639;51.488;0.152;2022-12-24T08:46:46;7.90;99.90
29731;DHT22;16639;51.488;0.152;2022-12-24T08:49:13;7.90;99.90
29731;DHT22;16639;51.488;0.152;2022-12-24T08:51:40;7.90;99.90
29731;DHT22;16639;51.488;0.152;2022-12-24T08:54:07;7.90;99.90
29731;DHT22;16639;51.488;0.152;2022-12-24T08:56:35;7.90;99.90
29731;DHT22;16639;51.488;0.152;2022-12-24T08:59:02;7.90;99.90
29731;DHT22;16639;51.488;0.152;2022-12-24T09:01:29;8.00;99.90
29731;DHT22;16639;51.488;0.152;2022-12-24T09:03:57;8.00;99.90
29731;DHT22;16639;51.488;0.152;2022-12-24T09:06:25;8.00;99.90
29731;DHT22;16639;51.488;0.152;2022-12-24T09:08:52;8.00;99.90
29731;DHT22;16639;51.488;0.152;2022-12-24T09:11:19;8.00;99.90
29731;DHT22;16639;51.488;0.152;2022-12-24T09:13:46;8.00;99.90
29731;DHT22;16639;51.488;0.152;2022-12-24T09:16:13;8.00;99.90
29731;DHT22;16639;51.488;0.152;2022-12-24T09:18:41;8.00;99.90
29731;DHT22;16639;51.488;0.152;2022-12-24T09:21:12;6.90;99.90
29731;DHT22;16639;51.488;0.152;2022-12-24T09:23:44;7.90;99.90
29731;DHT22;16639;51.488;0.152;2022-12-24T09:26:24;7.90;99.90
29731;DHT22;16639;51.488;0.152;2022-12-24T09:28:52;7.90;99.90
29731;DHT22;16639;51.488;0.152;2022-12-24T09:31:19;8.00;99.90
29731;DHT22;16639;51.488;0.152;2022-12-24T09:33:48;8.00;99.90
29731;DHT22;16639;51.488;0.152;2022-12-24T09:36:16;8.00;99.90
29731;DHT22;16639;51.488;0.152;2022-12-24T09:38:44;8.00;99.90
29731;DHT22;16639;51.488;0.152;2022-12-24T09:43:55;8.10;99.90
29731;DHT22;16639;51.488;0.152;2022-12-24T09:46:28;8.10;99.90
29731;DHT22;16639;51.488;0.152;2022-12-24T09:48:56;9.40;99.90
29731;DHT22;16639;51.488;0.152;2022-12-24T09:51:27;8.20;99.90
29731;DHT22;16639;51.488;0.152;2022-12-24T09:54:06;8.10;99.90
29731;DHT22;16639;51.488;0.152;2022-12-24T09:56:38;8.20;99.90
29731;DHT22;16639;51.488;0.152;2022-12-24T09:59:08;7.00;99.90
29731;DHT22;16639;51.488;0.152;2022-12-24T10:01:37;8.30;99.90
29731;DHT22;16639;51.488;0.152;2022-12-24T10:04:24;8.30;99.90
29731;DHT22;16639;51.488;0.152;2022-12-24T10:14:48;8.50;99.90
29731;DHT22;16639;51.488;0.152;2022-12-24T10:19:49;8.60;99.90
29731;DHT22;16639;51.488;0.152;2022-12-24T10:22:26;8.60;99.90
29731;DHT22;16639;51.488;0.152;2022-12-24T10:25:02;8.60;99.90
29731;DHT22;16639;51.488;0.152;2022-12-24T10:27:32;8.60;99.90
29731;DHT22;16639;51.488;0.152;2022-12-24T10:30:03;8.70;99.90
29731;DHT22;16639;51.488;0.152;2022-12-24T10:32:39;8.70;99.90
29731;DHT22;16639;51.488;0.152;2022-12-24T10:37:43;8.80;99.90
29731;DHT22;16639;51.488;0.152;2022-12-24T10:40:15;8.80;99.90
29731;DHT22;16639;51.488;0.152;2022-12-24T10:42:45;8.70;99.90
29731;DHT22;16639;51.488;0.152;2022-12-24T10:45:19;8.70;99.90
29731;DHT22;16639;51.488;0.152;2022-12-24T10:47:49;9.70;99.90
29731;DHT22;16639;51.488;0.152;2022-12-24T10:52:47;8.40;99.90
29731;DHT22;16639;51.488;0.152;2022-12-24T10:57:44;8.90;99.90
29731;DHT22;16639;51.488;0.152;2022-12-24T11:00:19;8.90;99.90
29731;DHT22;16639;51.488;0.152;2022-12-24T11:02:47;9.00;99.90
29731;DHT22;16639;51.488;0.152;2022-12-24T11:05:31;9.00;99.90
29731;DHT22;16639;51.488;0.152;2022-12-24T11:08:00;9.00;99.90
29731;DHT22;16639;51.488;0.152;2022-12-24T11:10:27;9.10;99.90
29731;DHT22;16639;51.488;0.152;2022-12-24T11:12:55;9.10;99.90
29731;DHT22;16639;51.488;0.152;2022-12-24T11:15:42;9.10;99.90
29731;DHT22;16639;51.488;0.152;2022-12-24T11:18:13;9.10;99.90
29731;DHT22;16639;51.488;0.152;2022-12-24T11:20:41;9.20;99.90
29731;DHT22;16639;51.488;0.152;2022-12-24T11:23:15;9.20;99.90
29731;DHT22;16639;51.488;0.152;2022-12-24T11:25:46;9.20;99.90
29731;DHT22;16639;51.488;0.152;2022-12-24T11:33:26;9.20;99.90
29731;DHT22;16639;51.488;0.152;2022-12-24T11:35:56;9.30;99.90
29731;DHT22;16639;51.488;0.152;2022-12-24T11:38:24;9.40;99.90
29731;DHT22;16639;51.488;0.152;2022-12-24T11:43:25;9.40;99.90
29731;DHT22;16639;51.488;0.152;2022-12-24T11:46:20;9.50;99.90
29731;DHT22;16639;51.488;0.152;2022-12-24T11:48:48;9.50;99.90
29731;DHT22;16639;51.488;0.152;2022-12-24T11:51:34;9.10;99.90
29731;DHT22;16639;51.488;0.152;2022-12-24T11:54:23;9.50;99.90
29731;DHT22;16639;51.488;0.152;2022-12-24T11:56:53;9.60;99.90
29731;DHT22;16639;51.488;0.152;2022-12-24T11:59:23;9.60;99.90
29731;DHT22;16639;51.488;0.152;2022-12-24T12:01:57;11.00;99.90
29731;DHT22;16639;51.488;0.152;2022-12-24T12:04:32;9.60;99.90
29731;DHT22;16639;51.488;0.152;2022-12-24T12:07:03;9.10;99.90
29731;DHT22;16639;51.488;0.152;2022-12-24T12:09:41;9.70;99.90
29731;DHT22;16639;51.488;0.152;2022-12-24T12:12:18;9.70;99.90
29731;DHT22;16639;51.488;0.152;2022-12-24T12:14:49;9.70;99.90
29731;DHT22;16639;51.488;0.152;2022-12-24T12:17:30;9.80;99.90
29731;DHT22;16639;51.488;0.152;2022-12-24T12:20:03;9.80;99.90
29731;DHT22;16639;51.488;0.152;2022-12-24T12:22:35;9.80;99.90
29731;DHT22;16639;51.488;0.152;2022-12-24T12:25:05;9.70;99.90
29731;DHT22;16639;51.488;0.152;2022-12-24T12:27:42;9.80;99.90
29731;DHT22;16639;51.488;0.152;2022-12-24T12:30:13;9.80;99.90
29731;DHT22;16639;51.488;0.152;2022-12-24T12:35:22;9.90;99.90
29731;DHT22;16639;51.488;0.152;2022-12-24T12:38:00;9.90;99.90
29731;DHT22;16639;51.488;0.152;2022-12-24T12:40:43;10.00;99.90
29731;DHT22;16639;51.488;0.152;2022-12-24T12:46:27;10.10;99.90
29731;DHT22;16639;51.488;0.152;2022-12-24T12:51:01;10.00;99.90
29731;DHT22;16639;51.488;0.152;2022-12-24T12:53:35;10.00;99.90
29731;DHT22;16639;51.488;0.152;2022-12-24T13:01:10;10.00;99.90
29731;DHT22;16639;51.488;0.152;2022-12-24T13:06:39;10.10;99.90
29731;DHT22;16639;51.488;0.152;2022-12-24T13:11:38;10.10;99.90
29731;DHT22;16639;51.488;0.152;2022-12-24T13:22:17;10.20;99.90
29731;DHT22;16639;51.488;0.152;2022-12-24T13:24:55;10.20;99.90
29731;DHT22;16639;51.488;0.152;2022-12-24T13:27:27;10.20;99.90
29731;DHT22;16639;51.488;0.152;2022-12-24T13:34:54;9.90;99.90
29731;DHT22;16639;51.488;0.152;2022-12-24T13:48:00;10.20;99.90
29731;DHT22;16639;51.488;0.152;2022-12-24T13:50:35;10.20;99.90
29731;DHT22;16639;51.488;0.152;2022-12-24T13:53:03;10.20;99.90
29731;DHT22;16639;51.488;0.152;2022-12-24T13:55:31;10.30;99.90
29731;DHT22;16639;51.488;0.152;2022-12-24T13:58:00;10.20;99.90
29731;DHT22;16639;51.488;0.152;2022-12-24T14:03:57;10.30;99.90
29731;DHT22;16639;51.488;0.152;2022-12-24T14:05:56;10.30;99.90
29731;DHT22;16639;51.488;0.152;2022-12-24T14:08:25;10.20;99.90
29731;DHT22;16639;51.488;0.152;2022-12-24T14:19:20;10.10;99.90
29731;DHT22;16639;51.488;0.152;2022-12-24T14:21:21;10.10;99.90
29731;DHT22;16639;51.488;0.152;2022-12-24T14:23:51;10.10;99.90
29731;DHT22;16639;51.488;0.152;2022-12-24T14:26:21;10.10;99.90
29731;DHT22;16639;51.488;0.152;2022-12-24T14:28:53;10.10;99.90
29731;DHT22;16639;51.488;0.152;2022-12-24T14:31:21;10.20;99.90
29731;DHT22;16639;51.488;0.152;2022-12-24T14:33:48;10.10;99.90
29731;DHT22;16639;51.488;0.152;2022-12-24T14:36:18;10.00;99.90
29731;DHT22;16639;51.488;0.152;2022-12-24T14:38:46;10.10;99.90
29731;DHT22;16639;51.488;0.152;2022-12-24T14:41:18;10.00;99.90
29731;DHT22;16639;51.488;0.152;2022-12-24T14:49:27;11.30;99.90
29731;DHT22;16639;51.488;0.152;2022-12-24T14:54:56;10.00;99.90
29731;DHT22;16639;51.488;0.152;2022-12-24T14:57:24;10.00;99.90
29731;DHT22;16639;51.488;0.152;2022-12-24T14:59:56;10.00;99.90
29731;DHT22;16639;51.488;0.152;2022-12-24T15:05:27;9.90;99.90
29731;DHT22;16639;51.488;0.152;2022-12-24T15:07:56;9.90;99.90
29731;DHT22;16639;51.488;0.152;2022-12-24T15:10:34;9.90;99.90
29731;DHT22;16639;51.488;0.152;2022-12-24T15:13:03;10.00;99.90
29731;DHT22;16639;51.488;0.152;2022-12-24T15:15:30;9.90;99.90
29731;DHT22;16639;51.488;0.152;2022-12-24T15:17:58;9.50;99.90
29731;DHT22;16639;51.488;0.152;2022-12-24T15:20:26;9.80;99.90
29731;DHT22;16639;51.488;0.152;2022-12-24T15:22:55;9.20;99.90
29731;DHT22;16639;51.488;0.152;2022-12-24T15:25:24;9.90;99.90
29731;DHT22;16639;51.488;0.152;2022-12-24T15:27:52;9.80;99.90
29731;DHT22;16639;51.488;0.152;2022-12-24T15:30:21;9.80;99.90
29731;DHT22;16639;51.488;0.152;2022-12-24T15:32:49;9.80;99.90
29731;DHT22;16639;51.488;0.152;2022-12-24T15:38:02;9.70;99.90
29731;DHT22;16639;51.488;0.152;2022-12-24T15:40:32;10.20;99.90
29731;DHT22;16639;51.488;0.152;2022-12-24T15:43:00;9.60;99.90
29731;DHT22;16639;51.488;0.152;2022-12-24T15:45:28;9.60;99.90
29731;DHT22;16639;51.488;0.152;2022-12-24T15:48:00;9.60;99.90
29731;DHT22;16639;51.488;0.152;2022-12-24T15:50:35;9.60;99.90
29731;DHT22;16639;51.488;0.152;2022-12-24T15:53:03;9.60;99.90
29731;DHT22;16639;51.488;0.152;2022-12-24T15:56:05;9.50;99.90
29731;DHT22;16639;51.488;0.152;2022-12-24T15:58:34;9.50;99.90
29731;DHT22;16639;51.488;0.152;2022-12-24T16:03:30;9.40;99.90
29731;DHT22;16639;51.488;0.152;2022-12-24T16:05:58;9.40;99.90
29731;DHT22;16639;51.488;0.152;2022-12-24T16:08:30;9.40;99.90
29731;DHT22;16639;51.488;0.152;2022-12-24T16:11:16;9.30;99.90
29731;DHT22;16639;51.488;0.152;2022-12-24T16:16:19;9.30;99.90
29731;DHT22;16639;51.488;0.152;2022-12-24T16:21:18;9.30;99.90
29731;DHT22;16639;51.488;0.152;2022-12-24T16:23:46;9.20;99.90
29731;DHT22;16639;51.488;0.152;2022-12-24T16:26:14;9.20;99.90
29731;DHT22;16639;51.488;0.152;2022-12-24T16:28:41;9.20;99.90
29731;DHT22;16639;51.488;0.152;2022-12-24T16:31:19;9.70;99.90
29731;DHT22;16639;51.488;0.152;2022-12-24T16:33:54;9.10;99.90
29731;DHT22;16639;51.488;0.152;2022-12-24T16:36:21;9.10;99.90
29731;DHT22;16639;51.488;0.152;2022-12-24T16:38:48;8.90;99.90
29731;DHT22;16639;51.488;0.152;2022-12-24T16:41:34;9.00;99.90
29731;DHT22;16639;51.488;0.152;2022-12-24T16:44:21;9.00;99.90
29731;DHT22;16639;51.488;0.152;2022-12-24T16:46:49;9.00;99.90
29731;DHT22;16639;51.488;0.152;2022-12-24T16:49:16;9.30;99.90
29731;DHT22;16639;51.488;0.152;2022-12-24T16:51:44;9.00;99.90
29731;DHT22;16639;51.488;0.152;2022-12-24T16:54:12;9.00;99.90
29731;DHT22;16639;51.488;0.152;2022-12-24T16:56:40;9.00;99.90
29731;DHT22;16639;51.488;0.152;2022-12-24T16:59:12;9.00;99.90
29731;DHT22;16639;51.488;0.152;2022-12-24T17:01:41;9.20;99.90
29731;DHT22;16639;51.488;0.152;2022-12-24T17:04:08;9.00;99.90
29731;DHT22;16639;51.488;0.152;2022-12-24T17:06:36;9.00;99.90
29731;DHT22;16639;51.488;0.152;2022-12-24T17:09:03;9.10;99.90
29731;DHT22;16639;51.488;0.152;2022-12-24T17:11:31;9.00;99.90
29731;DHT22;16639;51.488;0.152;2022-12-24T17:13:58;9.10;99.90
29731;DHT22;16639;51.488;0.152;2022-12-24T17:16:33;9.10;99.90
29731;DHT22;16639;51.488;0.152;2022-12-24T17:19:00;9.10;99.90
29731;DHT22;16639;51.488;0.152;2022-12-24T17:21:27;9.10;99.90
29731;DHT22;16639;51.488;0.152;2022-12-24T17:23:54;9.10;99.90
29731;DHT22;16639;51.488;0.152;2022-12-24T17:26:21;9.10;99.90
29731;DHT22;16639;51.488;0.152;2022-12-24T17:28:51;9.10;99.90
29731;DHT22;16639;51.488;0.152;2022-12-24T17:31:18;9.10;99.90
29731;DHT22;16639;51.488;0.152;2022-12-24T17:33:49;9.00;99.90
29731;DHT22;16639;51.488;0.152;2022-12-24T17:36:17;9.00;99.90
29731;DHT22;16639;51.488;0.152;2022-12-24T17:38:44;9.00;99.90
29731;DHT22;16639;51.488;0.152;2022-12-24T17:41:13;9.00;99.90
29731;DHT22;16639;51.488;0.152;2022-12-24T17:43:40;9.00;99.90
29731;DHT22;16639;51.488;0.152;2022-12-24T17:46:09;9.10;99.90
29731;DHT22;16639;51.488;0.152;2022-12-24T17:48:36;9.00;99.90
29731;DHT22;16639;51.488;0.152;2022-12-24T17:51:04;9.00;99.90
29731;DHT22;16639;51.488;0.152;2022-12-24T17:53:35;9.00;99.90
29731;DHT22;16639;51.488;0.152;2022-12-24T17:56:02;9.10;99.90
29731;DHT22;16639;51.488;0.152;2022-12-24T17:58:29;9.00;99.90
29731;DHT22;16639;51.488;0.152;2022-12-24T18:00:57;9.10;99.90
29731;DHT22;16639;51.488;0.152;2022-12-24T18:03:24;9.20;99.90
29731;DHT22;16639;51.488;0.152;2022-12-24T18:05:52;9.20;99.90